sensor_id;sensor_type;location;lat;lon;timestamp;temperature;humidity
24772;DHT22;12870;52.274;9.754;2023-02-12T00:01:34;8.60;99.90
24772;DHT22;12870;52.274;9.754;2023-02-12T00:04:00;8.60;99.90
24772;DHT22;12870;52.274;9.754;2023-02-12T00:06:26;8.60;99.90
24772;DHT22;12870;52.274;9.754;2023-02-12T00:08:53;8.60;99.90
24772;DHT22;12870;52.274;9.754;2023-02-12T00:11:22;8.60;99.90
24772;DHT22;12870;52.274;9.754;2023-02-12T00:13:48;8.60;99.90
24772;DHT22;12870;52.274;9.754;2023-02-12T00:16:16;8.60;99.90
24772;DHT22;12870;52.274;9.754;2023-02-12T00:18:43;8.60;99.90
24772;DHT22;12870;52.274;9.754;2023-02-12T00:21:09;8.60;99.90
24772;DHT22;12870;52.274;9.754;2023-02-12T00:23:36;8.60;99.90
24772;DHT22;12870;52.274;9.754;2023-02-12T00:26:11;8.60;99.90
24772;DHT22;12870;52.274;9.754;2023-02-12T00:28:38;8.60;99.90
24772;DHT22;12870;52.274;9.754;2023-02-12T00:31:08;8.70;99.90
24772;DHT22;12870;52.274;9.754;2023-02-12T00:33:34;8.70;99.90
24772;DHT22;12870;52.274;9.754;2023-02-12T00:35:59;8.60;99.90
24772;DHT22;12870;52.274;9.754;2023-02-12T00:38:25;8.70;99.90
24772;DHT22;12870;52.274;9.754;2023-02-12T00:40:51;8.70;99.90
24772;DHT22;12870;52.274;9.754;2023-02-12T00:43:17;8.60;99.90
24772;DHT22;12870;52.274;9.754;2023-02-12T00:45:44;8.50;99.90
24772;DHT22;12870;52.274;9.754;2023-02-12T00:48:10;8.50;99.90
24772;DHT22;12870;52.274;9.754;2023-02-12T00:50:36;8.50;99.90
24772;DHT22;12870;52.274;9.754;2023-02-12T00:53:02;8.50;99.90
24772;DHT22;12870;52.274;9.754;2023-02-12T00:58:52;8.50;99.90
24772;DHT22;12870;52.274;9.754;2023-02-12T01:01:18;8.40;99.90
24772;DHT22;12870;52.274;9.754;2023-02-12T01:03:43;8.40;99.90
24772;DHT22;12870;52.274;9.754;2023-02-12T01:06:09;8.40;99.90
24772;DHT22;12870;52.274;9.754;2023-02-12T01:08:35;8.40;99.90
24772;DHT22;12870;52.274;9.754;2023-02-12T01:11:03;8.40;99.90
24772;DHT22;12870;52.274;9.754;2023-02-12T01:13:30;8.30;99.90
24772;DHT22;12870;52.274;9.754;2023-02-12T01:16:06;8.30;99.90
24772;DHT22;12870;52.274;9.754;2023-02-12T01:18:34;8.40;99.90
24772;DHT22;12870;52.274;9.754;2023-02-12T01:21:00;8.30;99.90
24772;DHT22;12870;52.274;9.754;2023-02-12T01:23:26;8.30;99.90
24772;DHT22;12870;52.274;9.754;2023-02-12T01:25:52;8.30;99.90
24772;DHT22;12870;52.274;9.754;2023-02-12T01:28:17;8.20;99.90
24772;DHT22;12870;52.274;9.754;2023-02-12T01:30:43;8.20;99.90
24772;DHT22;12870;52.274;9.754;2023-02-12T01:33:09;8.20;99.90
24772;DHT22;12870;52.274;9.754;2023-02-12T01:35:36;8.20;99.90
24772;DHT22;12870;52.274;9.754;2023-02-12T01:38:02;8.30;99.90
24772;DHT22;12870;52.274;9.754;2023-02-12T01:40:28;8.20;99.90
24772;DHT22;12870;52.274;9.754;2023-02-12T01:42:53;8.20;99.90
24772;DHT22;12870;52.274;9.754;2023-02-12T01:45:45;8.20;99.90
24772;DHT22;12870;52.274;9.754;2023-02-12T01:48:13;8.10;99.90
24772;DHT22;12870;52.274;9.754;2023-02-12T01:50:41;8.10;99.90
24772;DHT22;12870;52.274;9.754;2023-02-12T01:53:07;8.10;99.90
24772;DHT22;12870;52.274;9.754;2023-02-12T01:55:34;8.20;99.90
24772;DHT22;12870;52.274;9.754;2023-02-12T01:57:59;8.10;99.90
24772;DHT22;12870;52.274;9.754;2023-02-12T02:00:25;8.10;99.90
24772;DHT22;12870;52.274;9.754;2023-02-12T02:02:54;8.10;99.90
24772;DHT22;12870;52.274;9.754;2023-02-12T02:06:05;8.00;99.90
24772;DHT22;12870;52.274;9.754;2023-02-12T02:08:22;8.10;99.90
24772;DHT22;12870;52.274;9.754;2023-02-12T02:10:48;8.00;99.90
24772;DHT22;12870;52.274;9.754;2023-02-12T02:13:14;8.00;99.90
24772;DHT22;12870;52.274;9.754;2023-02-12T02:16:02;8.00;99.90
24772;DHT22;12870;52.274;9.754;2023-02-12T02:19:23;8.00;
24772;DHT22;12870;52.274;9.754;2023-02-12T02:27:31;8.00;99.90
24772;DHT22;12870;52.274;9.754;2023-02-12T02:35:23;7.90;99.90
24772;DHT22;12870;52.274;9.754;2023-02-12T02:41:04;7.90;99.90
24772;DHT22;12870;52.274;9.754;2023-02-12T02:43:36;7.90;99.90
24772;DHT22;12870;52.274;9.754;2023-02-12T02:46:10;7.90;99.90
24772;DHT22;12870;52.274;9.754;2023-02-12T02:48:42;7.90;99.90
24772;DHT22;12870;52.274;9.754;2023-02-12T02:51:21;7.90;99.90
24772;DHT22;12870;52.274;9.754;2023-02-12T02:54:14;7.90;99.90
24772;DHT22;12870;52.274;9.754;2023-02-12T02:56:41;7.90;99.90
24772;DHT22;12870;52.274;9.754;2023-02-12T02:59:16;8.00;99.90
24772;DHT22;12870;52.274;9.754;2023-02-12T03:01:46;7.90;99.90
24772;DHT22;12870;52.274;9.754;2023-02-12T03:04:34;7.90;99.90
24772;DHT22;12870;52.274;9.754;2023-02-12T03:07:18;7.90;99.90
24772;DHT22;12870;52.274;9.754;2023-02-12T03:10:13;7.90;99.90
24772;DHT22;12870;52.274;9.754;2023-02-12T03:12:40;7.80;99.90
24772;DHT22;12870;52.274;9.754;2023-02-12T03:17:47;7.80;99.90
24772;DHT22;12870;52.274;9.754;2023-02-12T03:22:53;7.90;99.90
24772;DHT22;12870;52.274;9.754;2023-02-12T03:25:26;7.90;99.90
24772;DHT22;12870;52.274;9.754;2023-02-12T03:28:10;7.90;99.90
24772;DHT22;12870;52.274;9.754;2023-02-12T03:31:00;7.90;99.90
24772;DHT22;12870;52.274;9.754;2023-02-12T03:36:54;7.90;99.90
24772;DHT22;12870;52.274;9.754;2023-02-12T03:39:34;7.90;99.90
24772;DHT22;12870;52.274;9.754;2023-02-12T03:44:56;7.80;99.90
24772;DHT22;12870;52.274;9.754;2023-02-12T03:50:09;7.90;99.90
24772;DHT22;12870;52.274;9.754;2023-02-12T03:52:35;7.90;99.90
24772;DHT22;12870;52.274;9.754;2023-02-12T03:55:02;7.90;99.90
24772;DHT22;12870;52.274;9.754;2023-02-12T03:57:32;7.80;99.90
24772;DHT22;12870;52.274;9.754;2023-02-12T04:00:16;7.90;99.90
24772;DHT22;12870;52.274;9.754;2023-02-12T04:02:42;7.80;99.90
24772;DHT22;12870;52.274;9.754;2023-02-12T04:05:16;7.80;99.90
24772;DHT22;12870;52.274;9.754;2023-02-12T04:07:41;7.80;99.90
24772;DHT22;12870;52.274;9.754;2023-02-12T04:10:08;7.80;99.90
24772;DHT22;12870;52.274;9.754;2023-02-12T04:13:20;7.80;99.90
24772;DHT22;12870;52.274;9.754;2023-02-12T04:18:33;7.80;99.90
24772;DHT22;12870;52.274;9.754;2023-02-12T04:26:29;7.80;99.90
24772;DHT22;12870;52.274;9.754;2023-02-12T04:29:17;7.80;99.90
24772;DHT22;12870;52.274;9.754;2023-02-12T04:31:56;7.80;99.90
24772;DHT22;12870;52.274;9.754;2023-02-12T04:34:39;7.80;99.90
24772;DHT22;12870;52.274;9.754;2023-02-12T04:37:43;7.70;99.90
24772;DHT22;12870;52.274;9.754;2023-02-12T04:40:14;7.80;99.90
24772;DHT22;12870;52.274;9.754;2023-02-12T04:42:42;7.80;99.90
24772;DHT22;12870;52.274;9.754;2023-02-12T04:45:13;7.80;99.90
24772;DHT22;12870;52.274;9.754;2023-02-12T04:47:40;7.80;99.90
24772;DHT22;12870;52.274;9.754;2023-02-12T04:50:06;7.80;99.90
24772;DHT22;12870;52.274;9.754;2023-02-12T04:52:32;7.90;99.90
24772;DHT22;12870;52.274;9.754;2023-02-12T04:54:57;7.80;99.90
24772;DHT22;12870;52.274;9.754;2023-02-12T04:57:23;7.80;99.90
24772;DHT22;12870;52.274;9.754;2023-02-12T04:59:49;7.80;99.90
24772;DHT22;12870;52.274;9.754;2023-02-12T05:02:15;7.80;99.90
24772;DHT22;12870;52.274;9.754;2023-02-12T05:04:40;7.80;99.90
24772;DHT22;12870;52.274;9.754;2023-02-12T05:07:06;7.80;99.90
24772;DHT22;12870;52.274;9.754;2023-02-12T05:09:32;7.70;99.90
24772;DHT22;12870;52.274;9.754;2023-02-12T05:11:57;7.70;99.90
24772;DHT22;12870;52.274;9.754;2023-02-12T05:14:24;7.70;99.90
24772;DHT22;12870;52.274;9.754;2023-02-12T05:16:50;7.70;99.90
24772;DHT22;12870;52.274;9.754;2023-02-12T05:19:15;7.70;99.90
24772;DHT22;12870;52.274;9.754;2023-02-12T05:21:41;7.70;99.90
24772;DHT22;12870;52.274;9.754;2023-02-12T05:24:07;7.70;99.90
24772;DHT22;12870;52.274;9.754;2023-02-12T05:26:33;7.70;99.90
24772;DHT22;12870;52.274;9.754;2023-02-12T05:28:59;7.70;99.90
24772;DHT22;12870;52.274;9.754;2023-02-12T05:31:25;7.70;99.90
24772;DHT22;12870;52.274;9.754;2023-02-12T05:33:51;7.70;99.90
24772;DHT22;12870;52.274;9.754;2023-02-12T05:36:19;7.60;99.90
24772;DHT22;12870;52.274;9.754;2023-02-12T05:38:46;7.70;99.90
24772;DHT22;12870;52.274;9.754;2023-02-12T05:41:20;7.70;99.90
24772;DHT22;12870;52.274;9.754;2023-02-12T05:43:47;7.70;99.90
24772;DHT22;12870;52.274;9.754;2023-02-12T05:46:13;7.70;99.90
24772;DHT22;12870;52.274;9.754;2023-02-12T05:48:39;7.70;99.90
24772;DHT22;12870;52.274;9.754;2023-02-12T05:51:16;7.70;99.90
24772;DHT22;12870;52.274;9.754;2023-02-12T05:53:42;7.70;99.90
24772;DHT22;12870;52.274;9.754;2023-02-12T05:56:14;7.70;99.90
24772;DHT22;12870;52.274;9.754;2023-02-12T05:58:41;7.70;99.90
24772;DHT22;12870;52.274;9.754;2023-02-12T06:01:25;7.70;99.90
24772;DHT22;12870;52.274;9.754;2023-02-12T06:03:51;7.80;99.90
24772;DHT22;12870;52.274;9.754;2023-02-12T06:06:17;7.80;99.90
24772;DHT22;12870;52.274;9.754;2023-02-12T06:08:43;7.80;99.90
24772;DHT22;12870;52.274;9.754;2023-02-12T06:11:13;7.80;99.90
24772;DHT22;12870;52.274;9.754;2023-02-12T06:13:39;7.80;99.90
24772;DHT22;12870;52.274;9.754;2023-02-12T06:16:05;7.80;99.90
24772;DHT22;12870;52.274;9.754;2023-02-12T06:18:31;7.80;99.90
24772;DHT22;12870;52.274;9.754;2023-02-12T06:20:59;7.80;99.90
24772;DHT22;12870;52.274;9.754;2023-02-12T06:23:24;7.70;99.90
24772;DHT22;12870;52.274;9.754;2023-02-12T06:25:54;7.80;99.90
24772;DHT22;12870;52.274;9.754;2023-02-12T06:28:20;7.70;99.90
24772;DHT22;12870;52.274;9.754;2023-02-12T06:30:46;7.70;99.90
24772;DHT22;12870;52.274;9.754;2023-02-12T06:33:11;7.70;99.90
24772;DHT22;12870;52.274;9.754;2023-02-12T06:35:37;7.70;99.90
24772;DHT22;12870;52.274;9.754;2023-02-12T06:38:03;7.70;99.90
24772;DHT22;12870;52.274;9.754;2023-02-12T06:40:29;7.70;99.90
24772;DHT22;12870;52.274;9.754;2023-02-12T06:42:55;7.70;99.90
24772;DHT22;12870;52.274;9.754;2023-02-12T06:45:21;7.70;99.90
24772;DHT22;12870;52.274;9.754;2023-02-12T06:47:47;7.60;99.90
24772;DHT22;12870;52.274;9.754;2023-02-12T06:50:12;7.60;99.90
24772;DHT22;12870;52.274;9.754;2023-02-12T06:52:38;7.60;99.90
24772;DHT22;12870;52.274;9.754;2023-02-12T06:55:04;7.70;99.90
24772;DHT22;12870;52.274;9.754;2023-02-12T06:57:30;7.70;99.90
24772;DHT22;12870;52.274;9.754;2023-02-12T06:59:56;7.60;99.90
24772;DHT22;12870;52.274;9.754;2023-02-12T07:02:21;7.70;99.90
24772;DHT22;12870;52.274;9.754;2023-02-12T07:04:47;7.70;99.90
24772;DHT22;12870;52.274;9.754;2023-02-12T07:07:13;7.70;99.90
24772;DHT22;12870;52.274;9.754;2023-02-12T07:09:38;7.70;99.90
24772;DHT22;12870;52.274;9.754;2023-02-12T07:12:04;7.70;99.90
24772;DHT22;12870;52.274;9.754;2023-02-12T07:14:30;7.70;99.90
24772;DHT22;12870;52.274;9.754;2023-02-12T07:16:56;7.70;99.90
24772;DHT22;12870;52.274;9.754;2023-02-12T07:19:22;7.70;99.90
24772;DHT22;12870;52.274;9.754;2023-02-12T07:21:48;7.70;99.90
24772;DHT22;12870;52.274;9.754;2023-02-12T07:24:15;7.80;99.90
24772;DHT22;12870;52.274;9.754;2023-02-12T07:26:43;7.80;99.90
24772;DHT22;12870;52.274;9.754;2023-02-12T07:29:09;7.90;99.90
24772;DHT22;12870;52.274;9.754;2023-02-12T07:31:35;7.90;99.90
24772;DHT22;12870;52.274;9.754;2023-02-12T07:34:01;7.90;99.90
24772;DHT22;12870;52.274;9.754;2023-02-12T07:36:29;8.00;99.90
24772;DHT22;12870;52.274;9.754;2023-02-12T07:38:55;8.00;99.90
24772;DHT22;12870;52.274;9.754;2023-02-12T07:41:33;8.10;99.90
24772;DHT22;12870;52.274;9.754;2023-02-12T07:44:02;8.10;99.90
24772;DHT22;12870;52.274;9.754;2023-02-12T07:46:34;8.10;99.90
24772;DHT22;12870;52.274;9.754;2023-02-12T07:49:02;8.10;99.90
24772;DHT22;12870;52.274;9.754;2023-02-12T07:51:31;8.10;99.90
24772;DHT22;12870;52.274;9.754;2023-02-12T07:54:00;8.10;99.90
24772;DHT22;12870;52.274;9.754;2023-02-12T07:56:28;8.20;99.90
24772;DHT22;12870;52.274;9.754;2023-02-12T07:58:58;8.20;99.90
24772;DHT22;12870;52.274;9.754;2023-02-12T08:01:27;8.20;99.90
24772;DHT22;12870;52.274;9.754;2023-02-12T08:03:58;8.20;99.90
24772;DHT22;12870;52.274;9.754;2023-02-12T08:06:25;8.20;99.90
24772;DHT22;12870;52.274;9.754;2023-02-12T08:08:53;8.30;99.90
24772;DHT22;12870;52.274;9.754;2023-02-12T08:11:19;8.40;99.90
24772;DHT22;12870;52.274;9.754;2023-02-12T08:13:45;8.40;99.90
24772;DHT22;12870;52.274;9.754;2023-02-12T08:16:14;8.40;99.90
24772;DHT22;12870;52.274;9.754;2023-02-12T08:18:41;8.40;99.90
24772;DHT22;12870;52.274;9.754;2023-02-12T08:21:10;8.50;99.90
24772;DHT22;12870;52.274;9.754;2023-02-12T08:23:37;8.50;99.90
24772;DHT22;12870;52.274;9.754;2023-02-12T08:26:13;8.50;99.90
24772;DHT22;12870;52.274;9.754;2023-02-12T08:28:48;8.50;99.90
24772;DHT22;12870;52.274;9.754;2023-02-12T08:31:16;8.50;99.90
24772;DHT22;12870;52.274;9.754;2023-02-12T08:33:45;8.50;99.90
24772;DHT22;12870;52.274;9.754;2023-02-12T08:36:13;8.60;99.90
24772;DHT22;12870;52.274;9.754;2023-02-12T08:38:41;8.70;99.90
24772;DHT22;12870;52.274;9.754;2023-02-12T08:41:12;8.70;99.90
24772;DHT22;12870;52.274;9.754;2023-02-12T08:43:38;8.60;99.90
24772;DHT22;12870;52.274;9.754;2023-02-12T08:46:09;8.60;99.90
24772;DHT22;12870;52.274;9.754;2023-02-12T08:48:36;8.70;99.90
24772;DHT22;12870;52.274;9.754;2023-02-12T08:51:10;8.70;99.90
24772;DHT22;12870;52.274;9.754;2023-02-12T08:53:37;8.80;99.90
24772;DHT22;12870;52.274;9.754;2023-02-12T08:56:04;8.80;99.90
24772;DHT22;12870;52.274;9.754;2023-02-12T08:58:30;8.80;99.90
24772;DHT22;12870;52.274;9.754;2023-02-12T09:00:56;8.80;99.90
24772;DHT22;12870;52.274;9.754;2023-02-12T09:03:21;8.90;99.90
24772;DHT22;12870;52.274;9.754;2023-02-12T09:05:47;8.90;99.90
24772;DHT22;12870;52.274;9.754;2023-02-12T09:08:13;8.90;99.90
24772;DHT22;12870;52.274;9.754;2023-02-12T09:10:40;9.00;99.90
24772;DHT22;12870;52.274;9.754;2023-02-12T09:13:10;9.00;99.90
24772;DHT22;12870;52.274;9.754;2023-02-12T09:15:42;9.00;99.90
24772;DHT22;12870;52.274;9.754;2023-02-12T09:18:09;9.10;99.90
24772;DHT22;12870;52.274;9.754;2023-02-12T09:20:38;9.10;99.90
24772;DHT22;12870;52.274;9.754;2023-02-12T09:23:08;9.20;99.90
24772;DHT22;12870;52.274;9.754;2023-02-12T09:25:39;9.30;99.90
24772;DHT22;12870;52.274;9.754;2023-02-12T09:28:05;9.30;99.90
24772;DHT22;12870;52.274;9.754;2023-02-12T09:30:30;9.20;99.90
24772;DHT22;12870;52.274;9.754;2023-02-12T09:32:56;9.30;99.90
24772;DHT22;12870;52.274;9.754;2023-02-12T09:35:22;9.40;99.90
24772;DHT22;12870;52.274;9.754;2023-02-12T09:37:49;9.30;99.90
24772;DHT22;12870;52.274;9.754;2023-02-12T09:40:22;9.30;99.90
24772;DHT22;12870;52.274;9.754;2023-02-12T09:43:05;9.40;99.90
24772;DHT22;12870;52.274;9.754;2023-02-12T09:45:38;9.40;99.90
24772;DHT22;12870;52.274;9.754;2023-02-12T09:48:11;9.40;99.90
24772;DHT22;12870;52.274;9.754;2023-02-12T09:50:55;9.30;99.90
24772;DHT22;12870;52.274;9.754;2023-02-12T09:53:24;9.40;99.90
24772;DHT22;12870;52.274;9.754;2023-02-12T09:55:52;9.40;99.90
24772;DHT22;12870;52.274;9.754;2023-02-12T09:58:43;9.40;99.90
24772;DHT22;12870;52.274;9.754;2023-02-12T10:01:15;9.40;99.90
24772;DHT22;12870;52.274;9.754;2023-02-12T10:03:42;9.50;99.90
24772;DHT22;12870;52.274;9.754;2023-02-12T10:06:35;9.50;99.90
24772;DHT22;12870;52.274;9.754;2023-02-12T10:09:13;9.60;99.90
24772;DHT22;12870;52.274;9.754;2023-02-12T10:22:30;9.70;99.90
24772;DHT22;12870;52.274;9.754;2023-02-12T10:27:56;9.80;99.90
24772;DHT22;12870;52.274;9.754;2023-02-12T10:30:53;9.70;99.90
24772;DHT22;12870;52.274;9.754;2023-02-12T10:33:55;9.80;99.90
24772;DHT22;12870;52.274;9.754;2023-02-12T10:36:44;9.80;99.90
24772;DHT22;12870;52.274;9.754;2023-02-12T10:41:50;9.90;99.90
24772;DHT22;12870;52.274;9.754;2023-02-12T10:44:17;9.90;99.90
24772;DHT22;12870;52.274;9.754;2023-02-12T10:46:43;9.80;99.90
24772;DHT22;12870;52.274;9.754;2023-02-12T10:49:12;9.90;99.90
24772;DHT22;12870;52.274;9.754;2023-02-12T10:52:11;9.90;99.90
24772;DHT22;12870;52.274;9.754;2023-02-12T10:54:44;9.90;99.90
24772;DHT22;12870;52.274;9.754;2023-02-12T10:57:24;9.90;99.90
24772;DHT22;12870;52.274;9.754;2023-02-12T10:59:53;10.00;99.90
24772;DHT22;12870;52.274;9.754;2023-02-12T11:02:26;10.00;99.90
24772;DHT22;12870;52.274;9.754;2023-02-12T11:04:52;9.90;99.90
24772;DHT22;12870;52.274;9.754;2023-02-12T11:07:19;9.90;99.90
24772;DHT22;12870;52.274;9.754;2023-02-12T11:09:47;10.00;99.90
24772;DHT22;12870;52.274;9.754;2023-02-12T11:12:23;10.00;99.90
24772;DHT22;12870;52.274;9.754;2023-02-12T11:14:59;9.90;99.90
24772;DHT22;12870;52.274;9.754;2023-02-12T11:17:37;10.10;99.90
24772;DHT22;12870;52.274;9.754;2023-02-12T11:22:51;10.30;99.90
24772;DHT22;12870;52.274;9.754;2023-02-12T11:25:18;10.30;99.90
24772;DHT22;12870;52.274;9.754;2023-02-12T11:27:44;10.30;99.90
24772;DHT22;12870;52.274;9.754;2023-02-12T11:30:23;10.30;99.90
24772;DHT22;12870;52.274;9.754;2023-02-12T11:32:48;10.40;99.90
24772;DHT22;12870;52.274;9.754;2023-02-12T11:35:26;10.30;99.90
24772;DHT22;12870;52.274;9.754;2023-02-12T11:37:58;10.30;99.90
24772;DHT22;12870;52.274;9.754;2023-02-12T11:40:30;10.40;99.90
24772;DHT22;12870;52.274;9.754;2023-02-12T11:43:05;10.40;99.90
24772;DHT22;12870;52.274;9.754;2023-02-12T11:45:44;10.40;99.90
24772;DHT22;12870;52.274;9.754;2023-02-12T11:48:31;10.40;99.90
24772;DHT22;12870;52.274;9.754;2023-02-12T11:51:01;10.50;99.90
24772;DHT22;12870;52.274;9.754;2023-02-12T11:53:33;10.50;99.90
24772;DHT22;12870;52.274;9.754;2023-02-12T11:56:05;10.60;99.90
24772;DHT22;12870;52.274;9.754;2023-02-12T11:58:32;10.70;99.90
24772;DHT22;12870;52.274;9.754;2023-02-12T12:04:04;10.70;99.90
24772;DHT22;12870;52.274;9.754;2023-02-12T12:06:39;10.80;99.90
24772;DHT22;12870;52.274;9.754;2023-02-12T12:09:06;10.70;99.90
24772;DHT22;12870;52.274;9.754;2023-02-12T12:14:23;10.60;99.90
24772;DHT22;12870;52.274;9.754;2023-02-12T12:17:13;10.60;99.90
24772;DHT22;12870;52.274;9.754;2023-02-12T12:20:13;10.30;99.90
24772;DHT22;12870;52.274;9.754;2023-02-12T12:25:50;10.20;99.90
24772;DHT22;12870;52.274;9.754;2023-02-12T12:28:40;10.10;99.90
24772;DHT22;12870;52.274;9.754;2023-02-12T12:34:16;10.10;99.90
24772;DHT22;12870;52.274;9.754;2023-02-12T12:39:29;10.10;99.90
24772;DHT22;12870;52.274;9.754;2023-02-12T12:47:55;10.20;99.90
24772;DHT22;12870;52.274;9.754;2023-02-12T12:50:41;10.20;99.90
24772;DHT22;12870;52.274;9.754;2023-02-12T12:53:24;10.10;99.90
24772;DHT22;12870;52.274;9.754;2023-02-12T12:56:07;10.10;99.90
24772;DHT22;12870;52.274;9.754;2023-02-12T13:04:21;10.10;99.90
24772;DHT22;12870;52.274;9.754;2023-02-12T13:10:16;10.10;99.90
24772;DHT22;12870;52.274;9.754;2023-02-12T13:21:39;10.10;99.90
24772;DHT22;12870;52.274;9.754;2023-02-12T13:27:26;10.10;99.90
24772;DHT22;12870;52.274;9.754;2023-02-12T13:35:34;10.10;99.90
24772;DHT22;12870;52.274;9.754;2023-02-12T13:38:02;10.20;99.90
24772;DHT22;12870;52.274;9.754;2023-02-12T13:40:29;10.20;99.90
24772;DHT22;12870;52.274;9.754;2023-02-12T13:43:05;10.20;99.90
24772;DHT22;12870;52.274;9.754;2023-02-12T13:45:44;10.10;99.90
24772;DHT22;12870;52.274;9.754;2023-02-12T13:48:22;10.10;99.90
24772;DHT22;12870;52.274;9.754;2023-02-12T13:51:18;10.10;99.90
24772;DHT22;12870;52.274;9.754;2023-02-12T13:56:42;10.00;99.90
24772;DHT22;12870;52.274;9.754;2023-02-12T14:01:58;9.90;99.90
24772;DHT22;12870;52.274;9.754;2023-02-12T14:05:30;10.00;99.90
24772;DHT22;12870;52.274;9.754;2023-02-12T14:07:58;9.90;99.90
24772;DHT22;12870;52.274;9.754;2023-02-12T14:10:36;9.90;99.90
24772;DHT22;12870;52.274;9.754;2023-02-12T14:13:29;9.80;99.90
24772;DHT22;12870;52.274;9.754;2023-02-12T14:16:34;9.80;99.90
24772;DHT22;12870;52.274;9.754;2023-02-12T14:30:32;9.60;99.90
24772;DHT22;12870;52.274;9.754;2023-02-12T14:33:10;9.70;99.90
24772;DHT22;12870;52.274;9.754;2023-02-12T14:35:49;9.70;99.90
24772;DHT22;12870;52.274;9.754;2023-02-12T14:41:30;9.60;99.90
24772;DHT22;12870;52.274;9.754;2023-02-12T14:49:32;9.60;99.90
24772;DHT22;12870;52.274;9.754;2023-02-12T14:54:45;9.40;99.90
24772;DHT22;12870;52.274;9.754;2023-02-12T14:57:30;9.40;99.90
24772;DHT22;12870;52.274;9.754;2023-02-12T15:02:44;9.40;99.90
24772;DHT22;12870;52.274;9.754;2023-02-12T15:05:32;9.30;99.90
24772;DHT22;12870;52.274;9.754;2023-02-12T15:08:02;9.30;99.90
24772;DHT22;12870;52.274;9.754;2023-02-12T15:10:40;9.30;99.90
24772;DHT22;12870;52.274;9.754;2023-02-12T15:15:56;9.20;99.90
24772;DHT22;12870;52.274;9.754;2023-02-12T15:21:27;9.20;99.90
24772;DHT22;12870;52.274;9.754;2023-02-12T15:24:06;9.20;99.90
24772;DHT22;12870;52.274;9.754;2023-02-12T15:26:49;9.10;99.90
24772;DHT22;12870;52.274;9.754;2023-02-12T15:29:40;9.20;99.90
24772;DHT22;12870;52.274;9.754;2023-02-12T15:32:23;9.10;99.90
24772;DHT22;12870;52.274;9.754;2023-02-12T15:34:50;9.10;99.90
24772;DHT22;12870;52.274;9.754;2023-02-12T15:37:28;9.10;99.90
24772;DHT22;12870;52.274;9.754;2023-02-12T15:40:00;9.10;99.90
24772;DHT22;12870;52.274;9.754;2023-02-12T15:42:35;9.10;99.90
24772;DHT22;12870;52.274;9.754;2023-02-12T15:47:40;9.10;99.90
24772;DHT22;12870;52.274;9.754;2023-02-12T15:50:14;9.10;99.90
24772;DHT22;12870;52.274;9.754;2023-02-12T15:52:42;8.90;99.90
24772;DHT22;12870;52.274;9.754;2023-02-12T15:55:22;8.90;99.90
24772;DHT22;12870;52.274;9.754;2023-02-12T15:57:54;8.90;99.90
24772;DHT22;12870;52.274;9.754;2023-02-12T16:00:29;8.90;99.90
24772;DHT22;12870;52.274;9.754;2023-02-12T16:02:56;9.00;99.90
24772;DHT22;12870;52.274;9.754;2023-02-12T16:05:22;8.90;99.90
24772;DHT22;12870;52.274;9.754;2023-02-12T16:07:49;8.90;99.90
24772;DHT22;12870;52.274;9.754;2023-02-12T16:10:17;9.00;99.90
24772;DHT22;12870;52.274;9.754;2023-02-12T16:12:43;9.00;99.90
24772;DHT22;12870;52.274;9.754;2023-02-12T16:15:30;8.90;99.90
24772;DHT22;12870;52.274;9.754;2023-02-12T16:17:57;8.90;99.90
24772;DHT22;12870;52.274;9.754;2023-02-12T16:20:26;8.80;99.90
24772;DHT22;12870;52.274;9.754;2023-02-12T16:22:53;8.80;99.90
24772;DHT22;12870;52.274;9.754;2023-02-12T16:25:28;8.80;99.90
24772;DHT22;12870;52.274;9.754;2023-02-12T16:28:06;8.90;99.90
24772;DHT22;12870;52.274;9.754;2023-02-12T16:30:38;8.90;99.90
24772;DHT22;12870;52.274;9.754;2023-02-12T16:36:27;8.90;99.90
24772;DHT22;12870;52.274;9.754;2023-02-12T16:46:33;8.90;99.90
24772;DHT22;12870;52.274;9.754;2023-02-12T16:49:01;8.90;99.90
24772;DHT22;12870;52.274;9.754;2023-02-12T16:51:32;8.90;99.90
24772;DHT22;12870;52.274;9.754;2023-02-12T16:54:02;8.90;99.90
24772;DHT22;12870;52.274;9.754;2023-02-12T16:56:34;8.90;99.90
24772;DHT22;12870;52.274;9.754;2023-02-12T16:59:03;8.90;99.90
24772;DHT22;12870;52.274;9.754;2023-02-12T17:01:34;9.00;99.90
24772;DHT22;12870;52.274;9.754;2023-02-12T17:04:03;9.00;99.90
24772;DHT22;12870;52.274;9.754;2023-02-12T17:06:30;9.00;99.90
24772;DHT22;12870;52.274;9.754;2023-02-12T17:08:56;8.90;99.90
24772;DHT22;12870;52.274;9.754;2023-02-12T17:11:23;9.00;99.90
24772;DHT22;12870;52.274;9.754;2023-02-12T17:13:51;9.00;99.90
24772;DHT22;12870;52.274;9.754;2023-02-12T17:16:17;8.90;99.90
24772;DHT22;12870;52.274;9.754;2023-02-12T17:18:43;8.90;99.90
24772;DHT22;12870;52.274;9.754;2023-02-12T17:21:45;8.90;99.90
24772;DHT22;12870;52.274;9.754;2023-02-12T17:24:28;8.90;99.90
24772;DHT22;12870;52.274;9.754;2023-02-12T17:26:55;8.90;99.90
24772;DHT22;12870;52.274;9.754;2023-02-12T17:29:23;9.00;99.90
24772;DHT22;12870;52.274;9.754;2023-02-12T17:31:49;8.90;99.90
24772;DHT22;12870;52.274;9.754;2023-02-12T17:34:18;8.90;99.90
24772;DHT22;12870;52.274;9.754;2023-02-12T17:36:44;8.90;99.90
24772;DHT22;12870;52.274;9.754;2023-02-12T17:39:12;8.90;99.90
24772;DHT22;12870;52.274;9.754;2023-02-12T17:41:38;8.90;99.90
24772;DHT22;12870;52.274;9.754;2023-02-12T17:44:04;8.90;99.90
24772;DHT22;12870;52.274;9.754;2023-02-12T17:46:29;9.00;99.90
24772;DHT22;12870;52.274;9.754;2023-02-12T17:48:56;9.00;99.90
24772;DHT22;12870;52.274;9.754;2023-02-12T17:51:22;8.90;99.90
24772;DHT22;12870;52.274;9.754;2023-02-12T17:53:48;8.90;99.90
24772;DHT22;12870;52.274;9.754;2023-02-12T17:56:16;8.90;99.90
24772;DHT22;12870;52.274;9.754;2023-02-12T17:58:43;8.90;99.90
24772;DHT22;12870;52.274;9.754;2023-02-12T18:01:11;8.80;99.90
24772;DHT22;12870;52.274;9.754;2023-02-12T18:03:37;8.80;99.90
24772;DHT22;12870;52.274;9.754;2023-02-12T18:06:03;8.90;99.90
24772;DHT22;12870;52.274;9.754;2023-02-12T18:08:32;8.90;99.90
24772;DHT22;12870;52.274;9.754;2023-02-12T18:11:04;8.90;99.90
24772;DHT22;12870;52.274;9.754;2023-02-12T18:13:29;8.80;99.90
24772;DHT22;12870;52.274;9.754;2023-02-12T18:15:55;8.80;99.90
24772;DHT22;12870;52.274;9.754;2023-02-12T18:18:21;8.90;99.90
24772;DHT22;12870;52.274;9.754;2023-02-12T18:20:46;8.90;99.90
24772;DHT22;12870;52.274;9.754;2023-02-12T18:23:12;8.90;99.90
24772;DHT22;12870;52.274;9.754;2023-02-12T18:25:42;8.90;99.90
24772;DHT22;12870;52.274;9.754;2023-02-12T18:28:09;8.80;99.90
24772;DHT22;12870;52.274;9.754;2023-02-12T18:30:35;8.80;99.90
24772;DHT22;12870;52.274;9.754;2023-02-12T18:33:05;8.80;99.90
24772;DHT22;12870;52.274;9.754;2023-02-12T18:35:32;8.80;99.90
24772;DHT22;12870;52.274;9.754;2023-02-12T18:37:58;8.80;99.90
24772;DHT22;12870;52.274;9.754;2023-02-12T18:40:24;8.80;99.90
24772;DHT22;12870;52.274;9.754;2023-02-12T18:42:50;8.80;99.90
24772;DHT22;12870;52.274;9.754;2023-02-12T18:45:16;8.80;99.90
24772;DHT22;12870;52.274;9.754;2023-02-12T18:47:42;8.80;99.90